createdAt,value
2023-02-17T00:02:51.822Z,3.90
2023-02-17T00:06:04.313Z,3.53
2023-02-17T00:09:10.137Z,4.10
2023-02-17T00:12:17.061Z,3.28
2023-02-17T00:15:34.659Z,3.83
2023-02-17T00:18:45.788Z,4.00
2023-02-17T00:21:53.428Z,3.35
2023-02-17T00:25:00.994Z,3.20
2023-02-17T00:28:09.244Z,3.72
2023-02-17T00:31:25.253Z,3.50
2023-02-17T00:34:35.100Z,3.25
2023-02-17T00:37:41.605Z,3.45
2023-02-17T00:40:55.982Z,3.67
2023-02-17T00:44:02.165Z,4.43
2023-02-17T00:47:05.246Z,7.43
2023-02-17T00:50:12.212Z,6.60
2023-02-17T00:53:21.622Z,4.78
2023-02-17T00:56:46.415Z,3.55
2023-02-17T00:59:45.797Z,3.38
2023-02-17T01:02:51.392Z,3.03
2023-02-17T01:06:10.184Z,3.13
2023-02-17T01:09:22.103Z,3.03
2023-02-17T01:12:45.107Z,3.55
2023-02-17T01:16:08.965Z,3.58
2023-02-17T01:19:21.434Z,3.50
2023-02-17T01:23:10.205Z,3.33
2023-02-17T01:26:09.074Z,2.97
2023-02-17T01:29:25.373Z,3.50
2023-02-17T01:36:04.448Z,3.25
2023-02-17T01:39:10.256Z,3.33
2023-02-17T01:42:18.018Z,3.38
2023-02-17T01:45:44.986Z,3.25
2023-02-17T01:49:00.890Z,4.13
2023-02-17T01:52:18.138Z,3.13
2023-02-17T01:55:33.492Z,2.83
2023-02-17T01:58:33.772Z,3.13
2023-02-17T02:02:05.338Z,3.15
2023-02-17T02:05:26.511Z,3.35
2023-02-17T02:09:13.786Z,3.88
2023-02-17T02:12:45.100Z,3.55
2023-02-17T02:16:17.465Z,2.97
2023-02-17T02:19:46.713Z,3.60
2023-02-17T02:23:17.970Z,4.18
2023-02-17T02:26:45.871Z,4.35
2023-02-17T02:30:26.000Z,4.45
2023-02-17T02:34:17.185Z,4.30
2023-02-17T02:41:46.840Z,2.67
2023-02-17T02:44:51.867Z,2.97
2023-02-17T02:48:09.185Z,2.85
2023-02-17T02:51:47.318Z,3.07
2023-02-17T02:55:26.454Z,3.72
2023-02-17T02:58:44.905Z,4.53
2023-02-17T03:02:01.832Z,6.05
2023-02-17T03:09:05.827Z,6.35
2023-02-17T03:12:10.887Z,6.10
2023-02-17T03:15:49.584Z,6.57
2023-02-17T03:18:56.921Z,5.47
2023-02-17T03:22:09.372Z,4.45
2023-02-17T03:25:17.764Z,4.78
2023-02-17T03:28:23.719Z,4.22
2023-02-17T03:31:33.082Z,4.28
2023-02-17T03:34:37.775Z,5.65
2023-02-17T03:37:40.913Z,5.72
2023-02-17T03:40:50.099Z,5.80
2023-02-17T03:43:53.017Z,6.32
2023-02-17T03:47:13.858Z,5.00
2023-02-17T03:50:16.437Z,4.43
2023-02-17T03:53:31.991Z,4.13
2023-02-17T03:56:42.349Z,5.78
2023-02-17T03:59:49.751Z,5.43
2023-02-17T04:06:45.242Z,5.38
2023-02-17T04:10:00.540Z,5.82
2023-02-17T04:12:58.337Z,5.15
2023-02-17T04:16:13.806Z,5.43
2023-02-17T04:19:17.778Z,4.65
2023-02-17T04:22:33.446Z,5.10
2023-02-17T04:25:52.074Z,5.68
2023-02-17T04:28:52.269Z,5.85
2023-02-17T04:32:33.667Z,5.47
2023-02-17T04:35:46.012Z,4.75
2023-02-17T04:39:31.675Z,4.68
2023-02-17T04:42:41.608Z,4.40
2023-02-17T04:45:45.774Z,4.45
2023-02-17T04:48:49.652Z,4.07
2023-02-17T04:51:53.103Z,3.83
2023-02-17T04:54:56.393Z,3.97
2023-02-17T04:58:01.046Z,3.20
2023-02-17T05:01:05.516Z,3.33
2023-02-17T05:04:11.379Z,3.20
2023-02-17T05:07:20.928Z,2.75
2023-02-17T05:10:34.473Z,2.97
2023-02-17T05:13:41.843Z,2.83
2023-02-17T05:16:49.219Z,2.60
2023-02-17T05:19:52.596Z,2.42
2023-02-17T05:23:00.208Z,2.72
2023-02-17T05:26:29.689Z,2.85
2023-02-17T05:29:32.686Z,2.63
2023-02-17T05:32:41.375Z,2.38
2023-02-17T05:36:12.104Z,2.42
2023-02-17T05:39:17.726Z,2.35
2023-02-17T05:42:21.662Z,2.47
2023-02-17T05:45:23.998Z,2.70
2023-02-17T05:48:31.656Z,2.22
2023-02-17T05:51:39.394Z,2.40
2023-02-17T05:54:51.127Z,2.22
2023-02-17T05:57:56.923Z,2.17
2023-02-17T06:01:04.416Z,2.30
2023-02-17T06:04:13.835Z,2.15
2023-02-17T06:07:49.846Z,2.83
2023-02-17T06:10:56.519Z,3.20
2023-02-17T06:13:59.854Z,2.35
2023-02-17T06:17:03.824Z,2.33
2023-02-17T06:20:07.150Z,2.58
2023-02-17T06:23:11.051Z,2.80
2023-02-17T06:26:28.654Z,2.08
2023-02-17T06:29:24.156Z,2.22
2023-02-17T06:32:29.570Z,2.30
2023-02-17T06:35:33.497Z,2.20
2023-02-17T06:38:40.548Z,2.30
2023-02-17T06:41:44.643Z,2.50
2023-02-17T06:44:52.372Z,2.10
2023-02-17T06:48:20.336Z,2.20
2023-02-17T06:51:27.096Z,2.33
2023-02-17T06:54:33.499Z,1.95
2023-02-17T06:57:39.354Z,2.07
2023-02-17T07:01:11.626Z,2.13
2023-02-17T07:04:15.882Z,2.03
2023-02-17T07:07:20.678Z,2.05
2023-02-17T07:10:25.497Z,2.15
2023-02-17T07:13:29.956Z,2.17
2023-02-17T07:16:25.557Z,2.15
2023-02-17T07:19:21.609Z,2.17
2023-02-17T07:22:23.923Z,2.15
2023-02-17T07:25:28.196Z,2.40
2023-02-17T07:28:54.131Z,2.20
2023-02-17T07:31:57.861Z,2.17
2023-02-17T07:35:09.443Z,2.08
2023-02-17T07:38:16.490Z,2.10
2023-02-17T07:41:22.460Z,2.03
2023-02-17T07:44:31.781Z,2.13
2023-02-17T07:47:35.719Z,1.95
2023-02-17T07:50:41.619Z,2.10
2023-02-17T07:53:43.544Z,2.08
2023-02-17T07:56:47.629Z,2.20
2023-02-17T07:59:49.522Z,2.05
2023-02-17T08:02:51.537Z,2.03
2023-02-17T08:06:18.592Z,2.30
2023-02-17T08:09:40.103Z,2.20
2023-02-17T08:13:16.438Z,2.28
2023-02-17T08:16:20.045Z,2.30
2023-02-17T08:19:24.708Z,2.20
2023-02-17T08:22:28.891Z,2.17
2023-02-17T08:25:52.247Z,2.28
2023-02-17T08:29:20.769Z,2.28
2023-02-17T08:32:23.601Z,2.10
2023-02-17T08:35:50.368Z,2.20
2023-02-17T08:38:57.515Z,2.05
2023-02-17T08:42:13.817Z,2.15
2023-02-17T08:45:12.674Z,2.13
2023-02-17T08:48:20.665Z,2.10
2023-02-17T08:51:23.522Z,2.33
2023-02-17T08:54:28.278Z,2.40
2023-02-17T08:57:31.472Z,2.88
2023-02-17T09:00:33.326Z,2.88
2023-02-17T09:03:35.673Z,2.65
2023-02-17T09:06:50.752Z,3.10
2023-02-17T09:09:52.581Z,3.00
2023-02-17T09:12:54.480Z,3.20
2023-02-17T09:16:00.668Z,3.20
2023-02-17T09:19:09.305Z,3.28
2023-02-17T09:22:17.484Z,3.50
2023-02-17T09:25:28.922Z,3.38
2023-02-17T09:28:30.493Z,3.50
2023-02-17T09:31:29.864Z,3.58
2023-02-17T09:34:25.306Z,3.60
2023-02-17T09:37:28.508Z,3.53
2023-02-17T09:40:38.446Z,3.58
2023-02-17T09:43:46.553Z,3.47
2023-02-17T09:47:02.998Z,3.70
2023-02-17T09:50:40.480Z,3.95
2023-02-17T09:53:54.272Z,3.53
2023-02-17T09:57:11.988Z,3.42
2023-02-17T10:00:33.314Z,3.60
2023-02-17T10:04:04.677Z,3.65
2023-02-17T10:07:14.484Z,3.70
2023-02-17T10:10:24.800Z,4.15
2023-02-17T10:13:33.269Z,3.67
2023-02-17T10:16:46.459Z,3.83
2023-02-17T10:20:21.417Z,3.88
2023-02-17T10:23:49.354Z,3.90
2023-02-17T10:27:18.382Z,3.97
2023-02-17T10:31:04.618Z,3.85
2023-02-17T10:34:38.232Z,3.75
2023-02-17T10:38:12.563Z,3.67
2023-02-17T10:41:40.842Z,3.53
2023-02-17T10:44:46.313Z,3.45
2023-02-17T10:47:59.364Z,3.85
2023-02-17T10:51:15.437Z,4.15
2023-02-17T10:54:22.078Z,3.80
2023-02-17T10:57:30.585Z,3.83
2023-02-17T11:00:44.902Z,4.30
2023-02-17T11:07:41.909Z,3.83
2023-02-17T11:10:50.147Z,4.07
2023-02-17T11:14:11.534Z,3.60
2023-02-17T11:17:34.427Z,3.85
2023-02-17T11:20:40.929Z,3.70
2023-02-17T11:23:45.396Z,3.67
2023-02-17T11:26:50.112Z,4.13
2023-02-17T11:29:54.191Z,3.88
2023-02-17T11:36:38.983Z,3.97
2023-02-17T11:39:43.914Z,3.67
2023-02-17T11:42:52.879Z,4.05
2023-02-17T11:46:13.874Z,4.18
2023-02-17T11:49:20.685Z,4.03
2023-02-17T11:53:10.134Z,3.78
2023-02-17T11:56:25.321Z,4.05
2023-02-17T11:59:37.578Z,4.38
2023-02-17T12:03:21.378Z,4.22
2023-02-17T12:06:42.282Z,3.92
2023-02-17T12:10:19.459Z,4.60
2023-02-17T12:13:52.766Z,4.47
2023-02-17T12:17:05.201Z,4.25
2023-02-17T12:20:18.261Z,4.38
2023-02-17T12:24:10.383Z,4.25
2023-02-17T12:28:31.287Z,4.50
2023-02-17T12:32:06.652Z,4.22
2023-02-17T12:35:11.054Z,4.38
2023-02-17T12:38:24.337Z,4.55
2023-02-17T12:41:51.900Z,4.53
2023-02-17T12:44:53.549Z,4.45
2023-02-17T12:48:23.535Z,4.82
2023-02-17T12:51:46.259Z,4.20
2023-02-17T12:55:21.747Z,4.63
2023-02-17T12:58:40.356Z,4.65
2023-02-17T13:01:50.415Z,4.63
2023-02-17T13:09:56.742Z,4.20
2023-02-17T13:13:13.200Z,4.20
2023-02-17T13:16:24.777Z,4.38
2023-02-17T13:19:34.048Z,4.50
2023-02-17T13:23:05.802Z,4.35
2023-02-17T13:26:36.118Z,4.43
2023-02-17T13:29:43.711Z,3.92
2023-02-17T13:33:21.074Z,4.57
2023-02-17T13:36:46.098Z,4.53
2023-02-17T13:39:53.587Z,4.35
2023-02-17T13:43:01.626Z,4.35
2023-02-17T13:46:14.559Z,4.30
2023-02-17T13:49:21.464Z,4.53
2023-02-17T13:52:52.572Z,4.05
2023-02-17T13:56:24.885Z,4.13
2023-02-17T13:59:33.119Z,4.07
2023-02-17T16:22:21.632Z,0.95
2023-02-17T16:39:21.077Z,1.50
